Marola — IBFL — position and weather

sailwx.info

Track history (hours):
 
Tides and Currents Weather Stations Pressure Air Temp Water Temp Dewpoint Dewpoint Depression Visibility Wind Speed Wind Dir Waves Ship Positions

Marola

Last reported at 2016-Dec-08 01:25 UTC. Time now 2016-Dec-10 12:54 UTC.
Position N 37°52' W 022°23'.

Length 180 m; draft 11.4 m.

Type: Ship (hazmat cat B). MMSI: 247094900.

Date/timePositionNaut miles runAvg speedWind from/ knotsBaromVisibWave heightAir tempDewpointWater temp
2016-Dec-08 01:25N 37°52' W 022°23'1314.3
2016-Dec-08 00:33N 37°46' W 022°37'1414.1
2016-Dec-07 23:32N 37°38' W 022°52'1414.1
2016-Dec-07 22:33N 37°30' W 023°06'1413.8
2016-Dec-07 21:33N 37°23' W 023°21'1413.9
2016-Dec-07 20:33N 37°15' W 023°35'1414.0
2016-Dec-07 19:34N 37°07' W 023°49'1413.9
2016-Dec-07 18:33N 36°59' W 024°04'1413.9
2016-Dec-07 17:33N 36°52' W 024°19'1413.7
2016-Dec-07 16:33N 36°44' W 024°33'1413.8
2016-Dec-07 15:34N 36°37' W 024°47'1413.6
2016-Dec-07 14:33N 36°29' W 025°01'1413.7
2016-Dec-07 13:33N 36°21' W 025°15'1313.4
2016-Dec-07 12:33N 36°12' W 025°28'1413.8
2016-Dec-07 11:33N 36°04' W 025°42'1413.6
2016-Dec-07 10:33N 35°56' W 025°55'  
2016-Nov-29 19:33N 10°59' W 061°34'1212.1
2016-Nov-29 18:32N 10°52' W 061°45'10 9.9
2016-Nov-29 17:33N 10°43' W 061°49'10 9.7
2016-Nov-29 16:33N 10°34' W 061°50'8 7.6
2016-Nov-29 15:34N 10°27' W 061°46'8 7.8
2016-Nov-29 14:34N 10°24' W 061°39'7 7.2
2016-Nov-29 13:33N 10°22' W 061°31'0 0.3
2016-Nov-29 12:34N 10°22' W 061°32'0 0.1
2016-Nov-29 11:33N 10°22' W 061°32'0 0.1
2016-Nov-29 10:33N 10°22' W 061°31'0 0.0
2016-Nov-29 09:34N 10°22' W 061°31'0 0.0
2016-Nov-29 08:33N 10°22' W 061°31'0 0.0
2016-Nov-29 07:33N 10°22' W 061°31'0 0.0
2016-Nov-29 06:34N 10°22' W 061°32'0 0.1
2016-Nov-29 05:33N 10°22' W 061°32'0 0.0
2016-Nov-29 04:34N 10°22' W 061°32'0 0.0
2016-Nov-29 03:34N 10°22' W 061°32'0 0.0
2016-Nov-29 02:34N 10°22' W 061°32'0 0.1
2016-Nov-29 01:34N 10°22' W 061°32'0 0.0
2016-Nov-29 00:34N 10°22' W 061°32'0 0.0
2016-Nov-28 23:33N 10°22' W 061°32'0 0.0
2016-Nov-28 22:34N 10°22' W 061°32'0 0.0
2016-Nov-28 21:34N 10°22' W 061°32'0 0.0
2016-Nov-28 20:33N 10°22' W 061°32'0 0.0
2016-Nov-28 19:34N 10°22' W 061°32'0 0.0
2016-Nov-28 18:34N 10°22' W 061°32'0 0.0
2016-Nov-28 17:34N 10°22' W 061°32'0 0.0
2016-Nov-28 16:34N 10°22' W 061°32'0 0.0
2016-Nov-28 15:34N 10°22' W 061°32'0 0.0
2016-Nov-28 14:33N 10°22' W 061°32'0 0.0
2016-Nov-28 13:34N 10°22' W 061°32'0 0.1
2016-Nov-28 12:34N 10°22' W 061°32'1 0.6
2016-Nov-28 11:34N 10°23' W 061°31'2 0.3
2016-Nov-28 06:22N 10°23' W 061°30'0 0.0
2016-Nov-28 05:16N 10°23' W 061°30'0 0.0
2016-Nov-28 04:28N 10°23' W 061°30'0 0.0
2016-Nov-28 03:22N 10°23' W 061°30'0 0.0
2016-Nov-28 02:28N 10°23' W 061°30'0 0.0
2016-Nov-28 01:28N 10°23' W 061°30'  
Track history (hours):
 
Tides and Currents Weather Stations Pressure Air Temp Water Temp Dewpoint Dewpoint Depression Visibility Wind Speed Wind Dir Waves Ship Positions

Marola

Last reported at 2016-Dec-08 01:25 UTC. Time now 2016-Dec-10 12:54 UTC.
Position N 37°52' W 022°23'.

Length 180 m; draft 11.4 m.

Type: Ship (hazmat cat B). MMSI: 247094900.

Date/timePositionNaut miles runAvg speedWind from/ knotsBaromVisibWave heightAir tempDewpointWater temp
2016-Dec-08 01:25N 37°52' W 022°23'1314.3
2016-Dec-08 00:33N 37°46' W 022°37'1414.1
2016-Dec-07 23:32N 37°38' W 022°52'1414.1
2016-Dec-07 22:33N 37°30' W 023°06'1413.8
2016-Dec-07 21:33N 37°23' W 023°21'1413.9
2016-Dec-07 20:33N 37°15' W 023°35'1414.0
2016-Dec-07 19:34N 37°07' W 023°49'1413.9
2016-Dec-07 18:33N 36°59' W 024°04'1413.9
2016-Dec-07 17:33N 36°52' W 024°19'1413.7
2016-Dec-07 16:33N 36°44' W 024°33'1413.8
2016-Dec-07 15:34N 36°37' W 024°47'1413.6
2016-Dec-07 14:33N 36°29' W 025°01'1413.7
2016-Dec-07 13:33N 36°21' W 025°15'1313.4
2016-Dec-07 12:33N 36°12' W 025°28'1413.8
2016-Dec-07 11:33N 36°04' W 025°42'1413.6
2016-Dec-07 10:33N 35°56' W 025°55'  
2016-Nov-29 19:33N 10°59' W 061°34'1212.1
2016-Nov-29 18:32N 10°52' W 061°45'10 9.9
2016-Nov-29 17:33N 10°43' W 061°49'10 9.7
2016-Nov-29 16:33N 10°34' W 061°50'8 7.6
2016-Nov-29 15:34N 10°27' W 061°46'8 7.8
2016-Nov-29 14:34N 10°24' W 061°39'7 7.2
2016-Nov-29 13:33N 10°22' W 061°31'0 0.3
2016-Nov-29 12:34N 10°22' W 061°32'0 0.1
2016-Nov-29 11:33N 10°22' W 061°32'0 0.1
2016-Nov-29 10:33N 10°22' W 061°31'0 0.0
2016-Nov-29 09:34N 10°22' W 061°31'0 0.0
2016-Nov-29 08:33N 10°22' W 061°31'0 0.0
2016-Nov-29 07:33N 10°22' W 061°31'0 0.0
2016-Nov-29 06:34N 10°22' W 061°32'0 0.1
2016-Nov-29 05:33N 10°22' W 061°32'0 0.0
2016-Nov-29 04:34N 10°22' W 061°32'0 0.0
2016-Nov-29 03:34N 10°22' W 061°32'0 0.0
2016-Nov-29 02:34N 10°22' W 061°32'0 0.1
2016-Nov-29 01:34N 10°22' W 061°32'0 0.0
2016-Nov-29 00:34N 10°22' W 061°32'0 0.0
2016-Nov-28 23:33N 10°22' W 061°32'0 0.0
2016-Nov-28 22:34N 10°22' W 061°32'0 0.0
2016-Nov-28 21:34N 10°22' W 061°32'0 0.0
2016-Nov-28 20:33N 10°22' W 061°32'0 0.0
2016-Nov-28 19:34N 10°22' W 061°32'0 0.0
2016-Nov-28 18:34N 10°22' W 061°32'0 0.0
2016-Nov-28 17:34N 10°22' W 061°32'0 0.0
2016-Nov-28 16:34N 10°22' W 061°32'0 0.0
2016-Nov-28 15:34N 10°22' W 061°32'0 0.0
2016-Nov-28 14:33N 10°22' W 061°32'0 0.0
2016-Nov-28 13:34N 10°22' W 061°32'0 0.1
2016-Nov-28 12:34N 10°22' W 061°32'1 0.6
2016-Nov-28 11:34N 10°23' W 061°31'2 0.3
2016-Nov-28 06:22N 10°23' W 061°30'0 0.0
2016-Nov-28 05:16N 10°23' W 061°30'0 0.0
2016-Nov-28 04:28N 10°23' W 061°30'0 0.0
2016-Nov-28 03:22N 10°23' W 061°30'0 0.0
2016-Nov-28 02:28N 10°23' W 061°30'0 0.0
2016-Nov-28 01:28N 10°23' W 061°30'  

Dump ship's entire track history